createdAt,value
2023-02-12T00:01:29.290Z,100.00
2023-02-12T00:04:02.142Z,100.00
2023-02-12T00:06:34.132Z,100.00
2023-02-12T00:09:06.612Z,100.00
2023-02-12T00:11:38.654Z,100.00
2023-02-12T00:14:10.946Z,100.00
2023-02-12T00:16:44.002Z,100.00
2023-02-12T00:19:16.744Z,100.00
2023-02-12T00:21:48.932Z,100.00
2023-02-12T00:24:21.784Z,100.00
2023-02-12T00:26:53.791Z,100.00
2023-02-12T00:29:26.211Z,100.00
2023-02-12T00:31:58.845Z,100.00
2023-02-12T00:34:33.095Z,100.00
2023-02-12T00:37:05.571Z,100.00
2023-02-12T00:39:38.470Z,100.00
2023-02-12T00:42:10.891Z,100.00
2023-02-12T00:44:43.080Z,100.00
2023-02-12T00:47:17.315Z,100.00
2023-02-12T00:49:49.551Z,100.00
2023-02-12T00:52:22.689Z,100.00
2023-02-12T00:54:55.700Z,100.00
2023-02-12T00:57:28.302Z,100.00
2023-02-12T01:00:02.260Z,100.00
2023-02-12T01:02:34.637Z,100.00
2023-02-12T01:05:07.310Z,100.00
2023-02-12T01:07:41.114Z,100.00
2023-02-12T01:10:14.124Z,100.00
2023-02-12T01:12:46.715Z,100.00
2023-02-12T01:15:20.117Z,100.00
2023-02-12T01:17:54.693Z,100.00
2023-02-12T01:20:28.324Z,100.00
2023-02-12T01:23:01.865Z,100.00
2023-02-12T01:25:32.288Z,100.00
2023-02-12T01:28:04.152Z,100.00
2023-02-12T01:30:36.477Z,100.00
2023-02-12T01:33:08.994Z,100.00
2023-02-12T01:35:42.886Z,100.00
2023-02-12T01:38:15.375Z,100.00
2023-02-12T01:40:47.735Z,100.00
2023-02-12T01:43:19.728Z,100.00
2023-02-12T01:45:56.156Z,100.00
2023-02-12T01:48:50.276Z,100.00
2023-02-12T01:51:26.084Z,100.00
2023-02-12T01:54:00.739Z,100.00
2023-02-12T01:56:34.057Z,100.00
2023-02-12T01:59:06.868Z,100.00
2023-02-12T02:01:39.366Z,100.00
2023-02-12T02:04:17.518Z,100.00
2023-02-12T02:06:54.660Z,100.00
2023-02-12T02:09:30.100Z,100.00
2023-02-12T02:12:20.895Z,100.00
2023-02-12T02:14:56.196Z,100.00
2023-02-12T02:17:48.737Z,100.00
2023-02-12T02:20:44.437Z,100.00
2023-02-12T02:24:00.334Z,100.00
2023-02-12T02:27:04.691Z,100.00
2023-02-12T02:29:48.396Z,100.00
2023-02-12T02:32:25.058Z,100.00
2023-02-12T02:35:03.972Z,100.00
2023-02-12T02:37:42.316Z,100.00
2023-02-12T02:40:19.782Z,100.00
2023-02-12T02:42:56.803Z,100.00
2023-02-12T02:45:35.211Z,100.00
2023-02-12T02:48:11.952Z,100.00
2023-02-12T02:50:49.423Z,100.00
2023-02-12T02:53:28.342Z,100.00
2023-02-12T02:56:04.949Z,100.00
2023-02-12T02:58:41.093Z,100.00
2023-02-12T03:01:18.314Z,100.00
2023-02-12T03:03:55.100Z,100.00
2023-02-12T03:06:32.289Z,100.00
2023-02-12T03:09:11.511Z,100.00
2023-02-12T03:11:43.842Z,100.00
2023-02-12T03:14:22.720Z,100.00
2023-02-12T03:17:01.630Z,100.00
2023-02-12T03:19:38.773Z,100.00
2023-02-12T03:22:14.341Z,100.00
2023-02-12T03:24:49.912Z,100.00
2023-02-12T03:27:28.146Z,100.00
2023-02-12T03:30:01.457Z,100.00
2023-02-12T03:32:41.745Z,100.00
2023-02-12T03:35:19.349Z,100.00
2023-02-12T03:37:57.735Z,100.00
2023-02-12T03:40:35.674Z,100.00
2023-02-12T03:43:11.628Z,100.00
2023-02-12T03:45:48.948Z,100.00
2023-02-12T03:48:28.011Z,100.00
2023-02-12T03:51:05.470Z,100.00
2023-02-12T03:53:38.134Z,100.00
2023-02-12T03:56:15.155Z,100.00
2023-02-12T03:58:47.964Z,100.00
2023-02-12T04:01:21.060Z,100.00
2023-02-12T04:03:53.779Z,100.00
2023-02-12T04:06:29.032Z,100.00
2023-02-12T04:09:08.744Z,100.00
2023-02-12T04:11:55.858Z,100.00
2023-02-12T04:14:36.301Z,100.00
2023-02-12T04:17:11.562Z,100.00
2023-02-12T04:19:55.132Z,100.00
2023-02-12T04:22:39.629Z,100.00
2023-02-12T04:25:22.781Z,100.00
2023-02-12T04:28:03.480Z,100.00
2023-02-12T04:30:40.264Z,100.00
2023-02-12T04:33:18.345Z,100.00
2023-02-12T04:35:54.856Z,100.00
2023-02-12T04:38:31.195Z,100.00
2023-02-12T04:41:04.653Z,100.00
2023-02-12T04:43:38.901Z,100.00
2023-02-12T04:46:11.971Z,100.00
2023-02-12T04:48:56.753Z,100.00
2023-02-12T04:51:28.929Z,100.00
2023-02-12T04:54:01.275Z,100.00
2023-02-12T04:56:33.447Z,100.00
2023-02-12T04:59:05.925Z,100.00
2023-02-12T05:01:40.249Z,100.00
2023-02-12T05:04:14.513Z,100.00
2023-02-12T05:06:47.595Z,100.00
2023-02-12T05:09:21.977Z,100.00
2023-02-12T05:11:54.088Z,100.00
2023-02-12T05:14:27.455Z,100.00
2023-02-12T05:16:59.547Z,100.00
2023-02-12T05:19:31.730Z,100.00
2023-02-12T05:22:03.848Z,100.00
2023-02-12T05:24:35.981Z,100.00
2023-02-12T05:27:09.557Z,100.00
2023-02-12T05:29:41.800Z,100.00
2023-02-12T05:32:14.098Z,100.00
2023-02-12T05:34:46.459Z,100.00
2023-02-12T05:37:18.626Z,100.00
2023-02-12T05:39:52.185Z,100.00
2023-02-12T05:42:24.362Z,100.00
2023-02-12T05:44:56.863Z,100.00
2023-02-12T05:47:29.657Z,100.00
2023-02-12T05:50:01.886Z,100.00
2023-02-12T05:52:34.132Z,100.00
2023-02-12T05:55:06.902Z,100.00
2023-02-12T05:57:39.194Z,100.00
2023-02-12T06:00:13.454Z,100.00
2023-02-12T06:02:45.519Z,100.00
2023-02-12T06:05:17.909Z,100.00
2023-02-12T06:07:49.993Z,100.00
2023-02-12T06:10:22.731Z,100.00
2023-02-12T06:12:58.441Z,100.00
2023-02-12T06:15:30.578Z,100.00
2023-02-12T06:18:03.002Z,100.00
2023-02-12T06:20:35.022Z,100.00
2023-02-12T06:23:07.091Z,100.00
2023-02-12T06:25:40.223Z,100.00
2023-02-12T06:28:12.959Z,100.00
2023-02-12T06:30:45.764Z,100.00
2023-02-12T06:33:18.233Z,100.00
2023-02-12T06:35:50.289Z,100.00
2023-02-12T06:38:23.121Z,100.00
2023-02-12T06:40:55.235Z,100.00
2023-02-12T06:43:27.537Z,100.00
2023-02-12T06:46:04.225Z,100.00
2023-02-12T06:48:39.736Z,100.00
2023-02-12T06:51:14.856Z,100.00
2023-02-12T06:53:48.076Z,100.00
2023-02-12T06:56:21.881Z,100.00
2023-02-12T06:58:59.168Z,100.00
2023-02-12T07:01:33.182Z,100.00
2023-02-12T07:04:06.994Z,100.00
2023-02-12T07:06:40.604Z,100.00
2023-02-12T07:09:13.586Z,100.00
2023-02-12T07:11:46.882Z,100.00
2023-02-12T07:14:20.921Z,100.00
2023-02-12T07:16:56.955Z,100.00
2023-02-12T07:19:29.896Z,100.00
2023-02-12T07:22:02.238Z,100.00
2023-02-12T07:24:34.567Z,100.00
2023-02-12T07:27:09.762Z,100.00
2023-02-12T07:29:42.712Z,100.00
2023-02-12T07:32:15.141Z,100.00
2023-02-12T07:34:48.668Z,100.00
2023-02-12T07:37:23.235Z,100.00
2023-02-12T07:39:55.158Z,100.00
2023-02-12T07:42:27.297Z,100.00
2023-02-12T07:44:59.317Z,100.00
2023-02-12T07:47:31.451Z,100.00
2023-02-12T07:50:05.387Z,100.00
2023-02-12T07:52:35.779Z,100.00
2023-02-12T07:55:08.950Z,100.00
2023-02-12T07:57:41.070Z,100.00
2023-02-12T08:00:15.158Z,100.00
2023-02-12T08:02:52.305Z,100.00
2023-02-12T08:05:24.356Z,100.00
2023-02-12T08:07:56.679Z,100.00
2023-02-12T08:10:31.415Z,100.00
2023-02-12T08:13:05.388Z,100.00
2023-02-12T08:15:37.558Z,100.00
2023-02-12T08:18:10.134Z,100.00
2023-02-12T08:20:42.917Z,100.00
2023-02-12T08:23:15.050Z,100.00
2023-02-12T08:25:47.267Z,100.00
2023-02-12T08:28:34.420Z,100.00
2023-02-12T08:31:12.644Z,100.00
2023-02-12T08:33:45.834Z,100.00
2023-02-12T08:36:23.387Z,100.00
2023-02-12T08:38:59.099Z,100.00
2023-02-12T08:41:33.165Z,100.00
2023-02-12T08:44:06.788Z,100.00
2023-02-12T08:46:37.900Z,100.00
2023-02-12T08:49:13.132Z,100.00
2023-02-12T08:51:48.911Z,100.00
2023-02-12T08:54:22.925Z,100.00
2023-02-12T08:56:58.320Z,100.00
2023-02-12T08:59:31.235Z,100.00
2023-02-12T09:02:04.617Z,100.00
2023-02-12T09:04:37.602Z,100.00
2023-02-12T09:07:11.027Z,100.00
2023-02-12T09:09:43.182Z,100.00
2023-02-12T09:12:15.316Z,100.00
2023-02-12T09:14:47.658Z,100.00
2023-02-12T09:17:19.980Z,100.00
2023-02-12T09:19:52.062Z,100.00
2023-02-12T09:22:24.050Z,100.00
2023-02-12T09:24:58.422Z,100.00
2023-02-12T09:27:31.423Z,100.00
2023-02-12T09:30:06.608Z,100.00
2023-02-12T09:32:38.648Z,100.00
2023-02-12T09:35:13.209Z,100.00
2023-02-12T09:37:46.296Z,100.00
2023-02-12T09:40:27.218Z,100.00
2023-02-12T09:43:12.652Z,100.00
2023-02-12T09:45:51.428Z,100.00
2023-02-12T09:48:49.776Z,100.00
2023-02-12T09:51:22.591Z,100.00
2023-02-12T09:54:02.232Z,100.00
2023-02-12T09:56:35.915Z,100.00
2023-02-12T09:59:10.460Z,100.00
2023-02-12T10:01:42.942Z,100.00
2023-02-12T10:04:16.572Z,100.00
2023-02-12T10:06:50.796Z,100.00
2023-02-12T10:09:46.489Z,100.00
2023-02-12T10:12:31.469Z,100.00
2023-02-12T10:15:30.064Z,100.00
2023-02-12T10:18:18.098Z,100.00
2023-02-12T10:21:11.050Z,100.00
2023-02-12T10:24:07.741Z,100.00
2023-02-12T10:26:43.701Z,100.00
2023-02-12T10:29:21.160Z,100.00
2023-02-12T10:32:02.003Z,100.00
2023-02-12T10:34:38.460Z,100.00
2023-02-12T10:37:20.767Z,100.00
2023-02-12T10:39:58.592Z,100.00
2023-02-12T10:42:40.782Z,100.00
2023-02-12T10:45:20.494Z,100.00
2023-02-12T10:48:05.188Z,100.00
2023-02-12T10:50:51.276Z,100.00
2023-02-12T10:53:25.745Z,100.00
2023-02-12T10:56:15.689Z,100.00
2023-02-12T10:58:55.990Z,100.00
2023-02-12T11:01:30.980Z,100.00
2023-02-12T11:04:21.792Z,100.00
2023-02-12T11:07:03.849Z,100.00
2023-02-12T11:09:45.713Z,100.00
2023-02-12T11:12:36.014Z,100.00
2023-02-12T11:15:15.969Z,99.17
2023-02-12T11:17:57.464Z,97.10
2023-02-12T11:20:34.441Z,96.62
2023-02-12T11:23:08.749Z,95.62
2023-02-12T11:25:56.648Z,95.71
2023-02-12T11:28:29.835Z,94.72
2023-02-12T11:31:05.181Z,97.58
2023-02-12T11:33:39.239Z,94.96
2023-02-12T11:36:23.382Z,96.30
2023-02-12T11:38:55.280Z,96.55
2023-02-12T11:41:34.778Z,95.15
2023-02-12T11:44:13.648Z,91.75
2023-02-12T11:46:52.100Z,93.34
2023-02-12T11:49:29.067Z,94.31
2023-02-12T11:52:05.187Z,94.17
2023-02-12T11:54:44.120Z,95.51
2023-02-12T11:57:39.677Z,94.38
2023-02-12T12:00:18.915Z,93.86
2023-02-12T12:03:03.219Z,95.42
2023-02-12T12:05:40.343Z,94.80
2023-02-12T12:08:22.504Z,95.48
2023-02-12T12:10:59.992Z,98.21
2023-02-12T12:13:37.444Z,98.76
2023-02-12T12:16:32.113Z,97.95
2023-02-12T12:19:27.212Z,98.78
2023-02-12T12:22:07.033Z,97.65
2023-02-12T12:24:47.116Z,97.01
2023-02-12T12:27:42.644Z,99.02
2023-02-12T12:30:24.292Z,99.23
2023-02-12T12:32:58.736Z,97.55
2023-02-12T12:35:40.785Z,98.51
2023-02-12T12:38:29.968Z,98.31
2023-02-12T12:41:12.024Z,98.61
2023-02-12T12:43:56.914Z,98.63
2023-02-12T12:46:36.586Z,98.22
2023-02-12T12:49:24.228Z,97.29
2023-02-12T12:52:12.402Z,96.21
2023-02-12T12:55:01.074Z,95.98
2023-02-12T12:57:48.115Z,95.41
2023-02-12T13:00:31.594Z,94.08
2023-02-12T13:03:41.217Z,92.94
2023-02-12T13:06:31.866Z,90.94
2023-02-12T13:09:26.638Z,90.89
2023-02-12T13:12:22.817Z,90.56
2023-02-12T13:15:04.638Z,89.23
2023-02-12T13:17:46.335Z,90.20
2023-02-12T13:20:24.889Z,90.55
2023-02-12T13:23:03.025Z,90.25
2023-02-12T13:25:41.939Z,90.32
2023-02-12T13:28:23.139Z,89.74
2023-02-12T13:30:58.085Z,89.74
2023-02-12T13:33:44.010Z,89.58
2023-02-12T13:36:17.168Z,89.85
2023-02-12T13:38:53.803Z,90.45
2023-02-12T13:41:27.524Z,90.77
2023-02-12T13:44:09.065Z,90.34
2023-02-12T13:46:53.862Z,91.36
2023-02-12T13:49:39.914Z,91.53
2023-02-12T13:52:21.039Z,92.24
2023-02-12T13:55:07.907Z,92.19
2023-02-12T13:57:41.737Z,93.08
2023-02-12T14:00:45.035Z,94.26
2023-02-12T14:03:20.300Z,94.28
2023-02-12T14:06:14.086Z,94.60
2023-02-12T14:08:55.778Z,94.71
2023-02-12T14:11:32.268Z,96.18
2023-02-12T14:14:11.354Z,97.18
2023-02-12T14:16:47.767Z,96.80
2023-02-12T14:19:56.224Z,98.02
2023-02-12T14:23:04.516Z,97.85
2023-02-12T14:25:46.677Z,98.95
2023-02-12T14:28:31.414Z,99.36
2023-02-12T14:31:40.319Z,98.99
2023-02-12T14:34:46.192Z,99.67
2023-02-12T14:37:43.358Z,98.87
2023-02-12T14:40:46.689Z,99.43
2023-02-12T14:44:00.341Z,99.93
2023-02-12T14:46:57.502Z,99.94
2023-02-12T14:49:37.905Z,99.90
2023-02-12T14:52:23.529Z,100.00
2023-02-12T14:55:08.625Z,100.00
2023-02-12T14:57:48.995Z,100.00
2023-02-12T15:00:34.053Z,100.00
2023-02-12T15:03:23.966Z,100.00
2023-02-12T15:06:18.039Z,100.00
2023-02-12T15:08:56.437Z,100.00
2023-02-12T15:11:46.460Z,100.00
2023-02-12T15:14:23.271Z,100.00
2023-02-12T15:17:04.991Z,100.00
2023-02-12T15:19:45.459Z,100.00
2023-02-12T15:22:32.441Z,100.00
2023-02-12T15:25:27.266Z,100.00
2023-02-12T15:28:02.446Z,100.00
2023-02-12T15:30:38.215Z,100.00
2023-02-12T15:33:25.152Z,100.00
2023-02-12T15:35:58.597Z,100.00
2023-02-12T15:38:36.424Z,100.00
2023-02-12T15:41:09.885Z,100.00
2023-02-12T15:43:58.390Z,100.00
2023-02-12T15:46:34.387Z,100.00
2023-02-12T15:49:22.613Z,100.00
2023-02-12T15:51:54.754Z,100.00
2023-02-12T15:54:28.983Z,100.00
2023-02-12T15:57:02.255Z,100.00
2023-02-12T15:59:34.346Z,100.00
2023-02-12T16:02:19.081Z,100.00
2023-02-12T16:04:54.435Z,100.00
2023-02-12T16:07:27.368Z,100.00
2023-02-12T16:09:59.914Z,100.00
2023-02-12T16:12:37.929Z,100.00
2023-02-12T16:15:24.481Z,100.00
2023-02-12T16:17:58.733Z,100.00
2023-02-12T16:20:32.285Z,100.00
2023-02-12T16:23:10.702Z,100.00
2023-02-12T16:25:46.603Z,100.00
2023-02-12T16:28:25.760Z,100.00
2023-02-12T16:31:12.685Z,100.00
2023-02-12T16:33:50.061Z,100.00
2023-02-12T16:36:33.643Z,100.00
2023-02-12T16:39:08.829Z,100.00
2023-02-12T16:42:00.999Z,100.00
2023-02-12T16:44:34.434Z,100.00
2023-02-12T16:47:07.253Z,100.00
2023-02-12T16:49:39.385Z,100.00
2023-02-12T16:52:35.206Z,100.00
2023-02-12T16:55:14.586Z,100.00
2023-02-12T16:57:51.095Z,100.00
2023-02-12T17:00:26.451Z,100.00
2023-02-12T17:02:59.364Z,100.00
2023-02-12T17:05:31.362Z,100.00
2023-02-12T17:08:03.480Z,100.00
2023-02-12T17:10:35.477Z,100.00
2023-02-12T17:13:08.209Z,100.00
2023-02-12T17:15:42.984Z,100.00
2023-02-12T17:18:15.981Z,100.00
2023-02-12T17:20:53.537Z,100.00
2023-02-12T17:23:28.656Z,100.00
2023-02-12T17:26:02.556Z,100.00
2023-02-12T17:28:34.639Z,100.00
2023-02-12T17:31:07.904Z,100.00
2023-02-12T17:33:40.016Z,100.00
2023-02-12T17:36:13.672Z,100.00
2023-02-12T17:38:43.823Z,100.00
2023-02-12T17:41:17.014Z,100.00
2023-02-12T17:43:50.362Z,100.00
2023-02-12T17:46:26.786Z,100.00
2023-02-12T17:48:59.855Z,100.00
2023-02-12T17:51:33.344Z,100.00
2023-02-12T17:54:06.280Z,100.00
2023-02-12T17:56:38.396Z,100.00
2023-02-12T17:59:16.787Z,100.00
2023-02-12T18:01:49.014Z,100.00
2023-02-12T18:04:23.125Z,100.00
2023-02-12T18:06:55.618Z,100.00
2023-02-12T18:09:30.228Z,100.00
2023-02-12T18:12:02.636Z,100.00
2023-02-12T18:14:34.776Z,100.00
2023-02-12T18:17:06.845Z,100.00
2023-02-12T18:19:39.057Z,100.00
2023-02-12T18:22:12.425Z,100.00
2023-02-12T18:24:45.578Z,100.00
2023-02-12T18:27:19.005Z,100.00
2023-02-12T18:29:51.566Z,100.00
2023-02-12T18:32:26.977Z,100.00
2023-02-12T18:35:01.922Z,100.00
2023-02-12T18:37:35.577Z,100.00
2023-02-12T18:40:09.356Z,100.00
2023-02-12T18:42:40.146Z,100.00
2023-02-12T18:45:13.728Z,100.00
2023-02-12T18:47:45.985Z,100.00
2023-02-12T18:50:19.670Z,100.00
2023-02-12T18:52:51.775Z,100.00
2023-02-12T18:55:24.966Z,100.00
2023-02-12T18:57:57.051Z,100.00
2023-02-12T19:00:29.475Z,100.00
2023-02-12T19:03:01.899Z,100.00
2023-02-12T19:05:34.331Z,100.00
2023-02-12T19:08:06.765Z,100.00
2023-02-12T19:10:47.780Z,100.00
2023-02-12T19:13:23.493Z,100.00
2023-02-12T19:15:55.884Z,100.00
2023-02-12T19:18:28.365Z,100.00
2023-02-12T19:21:01.583Z,100.00
2023-02-12T19:23:34.881Z,100.00
2023-02-12T19:26:09.051Z,100.00
2023-02-12T19:28:42.033Z,100.00
2023-02-12T19:31:15.865Z,100.00
2023-02-12T19:33:49.449Z,100.00
2023-02-12T19:36:22.792Z,100.00
2023-02-12T19:38:55.404Z,100.00
2023-02-12T19:41:29.984Z,100.00
2023-02-12T19:44:03.686Z,100.00
2023-02-12T19:46:39.120Z,100.00
2023-02-12T19:49:17.216Z,100.00
2023-02-12T19:51:52.358Z,100.00
2023-02-12T19:54:26.142Z,100.00
2023-02-12T19:56:58.416Z,100.00
2023-02-12T19:59:31.515Z,100.00
2023-02-12T20:02:05.134Z,100.00
2023-02-12T20:04:37.819Z,100.00
2023-02-12T20:07:10.259Z,100.00
2023-02-12T20:09:44.355Z,100.00
2023-02-12T20:12:16.715Z,100.00
2023-02-12T20:14:49.559Z,100.00
2023-02-12T20:17:24.567Z,100.00
2023-02-12T20:19:57.318Z,100.00
2023-02-12T20:22:29.549Z,100.00
2023-02-12T20:25:01.882Z,100.00
2023-02-12T20:27:37.021Z,100.00
2023-02-12T20:30:13.176Z,100.00
2023-02-12T20:32:45.932Z,100.00
2023-02-12T20:35:19.791Z,100.00
2023-02-12T20:37:52.133Z,100.00
2023-02-12T20:40:24.690Z,100.00
2023-02-12T20:42:56.806Z,100.00
2023-02-12T20:45:29.598Z,100.00
2023-02-12T20:48:02.306Z,100.00
2023-02-12T20:50:34.648Z,100.00
2023-02-12T20:53:07.696Z,100.00
2023-02-12T20:55:39.764Z,100.00
2023-02-12T20:58:11.884Z,100.00
2023-02-12T21:00:43.975Z,100.00
2023-02-12T21:03:16.014Z,100.00
2023-02-12T21:05:49.116Z,100.00
2023-02-12T21:08:21.717Z,100.00
2023-02-12T21:11:01.401Z,100.00
2023-02-12T21:13:35.412Z,100.00
2023-02-12T21:16:14.154Z,100.00
2023-02-12T21:18:46.949Z,100.00
2023-02-12T21:21:21.968Z,100.00
2023-02-12T21:23:55.951Z,100.00
2023-02-12T21:26:30.899Z,100.00
2023-02-12T21:29:05.143Z,100.00
2023-02-12T21:31:41.315Z,100.00
2023-02-12T21:34:16.917Z,100.00
2023-02-12T21:36:50.998Z,100.00
2023-02-12T21:39:26.712Z,100.00
2023-02-12T21:42:00.391Z,100.00
2023-02-12T21:44:35.773Z,100.00
2023-02-12T21:47:09.012Z,100.00
2023-02-12T21:49:43.783Z,100.00
2023-02-12T21:52:15.849Z,100.00
2023-02-12T21:54:51.612Z,100.00
2023-02-12T21:57:23.577Z,100.00
2023-02-12T21:59:55.647Z,100.00
2023-02-12T22:02:27.762Z,100.00
2023-02-12T22:04:59.813Z,100.00
2023-02-12T22:07:31.921Z,100.00
2023-02-12T22:10:04.057Z,100.00
2023-02-12T22:12:38.179Z,100.00
2023-02-12T22:15:09.114Z,100.00
2023-02-12T22:17:41.113Z,100.00
2023-02-12T22:20:14.403Z,100.00
2023-02-12T22:22:46.640Z,100.00
2023-02-12T22:25:18.880Z,100.00
2023-02-12T22:27:51.049Z,100.00
2023-02-12T22:30:24.747Z,100.00
2023-02-12T22:32:56.767Z,100.00
2023-02-12T22:35:28.767Z,100.00
2023-02-12T22:38:01.176Z,100.00
2023-02-12T22:40:33.549Z,100.00
2023-02-12T22:43:05.699Z,100.00
2023-02-12T22:45:38.013Z,100.00
2023-02-12T22:48:12.107Z,100.00
2023-02-12T22:50:44.167Z,100.00
2023-02-12T22:53:16.643Z,100.00
2023-02-12T22:55:49.644Z,100.00
2023-02-12T22:58:23.664Z,100.00
2023-02-12T23:00:56.249Z,100.00
2023-02-12T23:03:31.911Z,100.00
2023-02-12T23:06:07.398Z,100.00
2023-02-12T23:08:39.898Z,100.00
2023-02-12T23:11:12.455Z,100.00
2023-02-12T23:13:44.749Z,100.00
2023-02-12T23:16:16.736Z,100.00
2023-02-12T23:18:49.471Z,100.00
2023-02-12T23:21:21.475Z,100.00
2023-02-12T23:23:53.824Z,100.00
2023-02-12T23:26:29.315Z,100.00
2023-02-12T23:29:01.529Z,100.00
2023-02-12T23:31:34.027Z,100.00
2023-02-12T23:34:06.514Z,100.00
2023-02-12T23:36:38.718Z,100.00
2023-02-12T23:39:12.144Z,100.00
2023-02-12T23:41:44.234Z,100.00
2023-02-12T23:44:16.627Z,100.00
2023-02-12T23:46:52.143Z,100.00
2023-02-12T23:49:24.768Z,100.00
2023-02-12T23:51:56.913Z,100.00
2023-02-12T23:54:29.244Z,100.00
2023-02-12T23:57:02.785Z,100.00
2023-02-12T23:59:34.760Z,100.00
